Time;durP1;ratioP1;P1;durP2;ratioP2;P2;SDS_P1;SDS_P2;PMS_P1;PMS_P2;Temp;Humidity;BMP_temperature;BMP_pressure;BME280_temperature;BME280_humidity;BME280_pressure;Samples;Min_cycle;Max_cycle;Signal;HPM_P1;HPM_P2
2021/12/17 00:07:01;;;;;;;4.63;4.00;;;5.70;99.90;;;;;;4971688;28;20420;-69
2021/12/17 00:09:27;;;;;;;5.47;3.10;;;5.70;99.90;;;;;;4971296;28;20607;-69
2021/12/17 00:11:53;;;;;;;3.97;3.13;;;5.70;99.90;;;;;;4971872;28;20504;-69
2021/12/17 00:14:27;;;;;;;12.83;4.07;;;5.70;99.90;;;;;;4971541;28;20173;-69
2021/12/17 00:16:54;;;;;;;10.30;5.90;;;5.70;99.90;;;;;;4971398;28;20404;-69
2021/12/17 00:19:35;;;;;;;8.23;5.63;;;5.70;99.90;;;;;;4971188;28;20831;-69
2021/12/17 00:49:20;;;;;;;6.07;4.80;;;5.70;99.90;;;;;;4975147;28;20437;-69
2021/12/17 00:51:56;;;;;;;5.73;2.90;;;5.70;99.90;;;;;;4975268;28;20432;-70
2021/12/17 00:54:32;;;;;;;7.13;3.07;;;5.70;99.90;;;;;;4974905;28;20500;-69
2021/12/17 00:57:00;;;;;;;6.90;4.00;;;5.70;99.90;;;;;;4974859;28;20488;-68
2021/12/17 00:59:26;;;;;;;6.87;4.00;;;5.70;99.90;;;;;;4974456;28;20483;-69
2021/12/17 01:01:54;;;;;;;8.00;4.30;;;5.70;99.90;;;;;;4974717;28;20441;-68
2021/12/17 01:04:21;;;;;;;7.40;3.90;;;5.70;99.90;;;;;;4974948;28;20409;-69
2021/12/17 01:06:46;;;;;;;6.33;4.00;;;5.70;99.90;;;;;;4974966;28;20412;-70
2021/12/17 01:09:16;;;;;;;7.67;4.80;;;5.70;99.90;;;;;;4974679;28;20428;-69
2021/12/17 01:11:42;;;;;;;9.83;3.13;;;5.70;99.90;;;;;;4975045;28;20508;-70
2021/12/17 01:14:07;;;;;;;9.30;4.20;;;5.70;99.90;;;;;;4974670;28;20543;-71
2021/12/17 01:16:33;;;;;;;5.40;3.50;;;5.70;99.90;;;;;;4974657;28;20165;-69
2021/12/17 01:24:34;;;;;;;3.50;2.80;;;5.70;99.90;;;;;;4974472;28;20401;-71
2021/12/17 01:35:22;;;;;;;6.67;2.90;;;5.60;99.90;;;;;;4974076;28;20444;-70
2021/12/17 01:42:58;;;;;;;9.17;3.70;;;5.60;99.90;;;;;;4973052;28;20417;-69
2021/12/17 01:45:28;;;;;;;4.33;2.00;;;5.60;99.90;;;;;;4973523;28;20508;-69
2021/12/17 01:47:55;;;;;;;9.23;4.07;;;5.60;99.90;;;;;;4973870;28;20627;-68
2021/12/17 01:56:03;;;;;;;4.37;3.27;;;5.70;99.90;;;;;;4973585;28;20491;-69
2021/12/17 02:01:14;;;;;;;6.60;2.83;;;5.60;99.90;;;;;;4973518;28;20524;-70
2021/12/17 02:03:40;;;;;;;12.80;4.70;;;5.60;99.90;;;;;;4973546;28;20409;-70
2021/12/17 02:06:06;;;;;;;8.23;4.83;;;5.60;99.90;;;;;;4973213;28;20417;-70
2021/12/17 02:08:33;;;;;;;7.70;3.13;;;5.60;99.90;;;;;;4973843;28;20277;-70
2021/12/17 02:11:43;;;;;;;7.17;4.50;;;5.60;99.90;;;;;;4973549;28;20463;-69
2021/12/17 02:30:12;;;;;;;4.97;2.73;;;5.60;99.90;;;;;;4973479;28;20563;-69
2021/12/17 02:32:39;;;;;;;8.90;4.20;;;5.50;99.90;;;;;;4973222;28;20770;-69
2021/12/17 02:35:28;;;;;;;4.10;3.33;;;5.50;99.90;;;;;;4973842;28;20455;-69
2021/12/17 02:37:54;;;;;;;6.63;4.10;;;5.60;99.90;;;;;;4973340;28;20429;-69
2021/12/17 02:45:36;;;;;;;2.97;2.67;;;5.60;99.90;;;;;;4973109;28;20420;-70
2021/12/17 02:48:18;;;;;;;4.67;2.63;;;5.60;99.90;;;;;;4972982;28;20830;-69
2021/12/17 02:50:50;;;;;;;8.67;3.80;;;5.60;99.90;;;;;;4973080;28;20224;-69
2021/12/17 02:53:18;;;;;;;3.63;2.97;;;5.60;99.90;;;;;;4972818;28;20439;-69
2021/12/17 02:55:49;;;;;;;7.60;2.97;;;5.60;99.90;;;;;;4972707;28;20417;-70
2021/12/17 02:58:15;;;;;;;6.23;4.33;;;5.60;99.90;;;;;;4972829;28;20480;-70
2021/12/17 03:00:43;;;;;;;3.23;2.80;;;5.60;99.90;;;;;;4972895;28;20409;-70
2021/12/17 03:03:10;;;;;;;8.77;2.63;;;5.60;99.90;;;;;;4972878;28;20491;-69
2021/12/17 03:05:39;;;;;;;5.23;2.57;;;5.60;99.90;;;;;;4973077;28;20778;-70
2021/12/17 03:08:07;;;;;;;2.23;1.53;;;5.60;99.90;;;;;;4973069;28;20433;-69
2021/12/17 03:10:33;;;;;;;7.70;3.63;;;5.60;99.90;;;;;;4971665;28;20461;-71
2021/12/17 03:13:02;;;;;;;2.63;2.37;;;5.60;99.90;;;;;;4972954;28;20415;-70
2021/12/17 03:15:41;;;;;;;3.60;3.30;;;5.60;99.90;;;;;;4972805;28;20252;-70
2021/12/17 03:23:39;;;;;;;2.80;2.47;;;5.60;99.90;;;;;;4972587;28;20463;-69
2021/12/17 03:26:12;;;;;;;9.43;3.43;;;5.60;99.90;;;;;;4972546;28;20437;-70
2021/12/17 03:28:41;;;;;;;4.20;3.20;;;5.50;99.90;;;;;;4972149;28;20468;-69
2021/12/17 03:31:08;;;;;;;5.47;3.63;;;5.50;99.90;;;;;;4971174;28;20515;-69
2021/12/17 03:33:34;;;;;;;3.87;2.77;;;5.60;99.90;;;;;;4972105;28;20543;-70
2021/12/17 03:36:00;;;;;;;4.50;2.60;;;5.60;99.90;;;;;;4972148;28;20416;-70
2021/12/17 03:38:26;;;;;;;4.80;3.03;;;5.50;99.90;;;;;;4972039;28;20939;-70
2021/12/17 03:41:03;;;;;;;13.37;3.40;;;5.50;99.90;;;;;;4972269;28;20185;-69
2021/12/17 03:43:30;;;;;;;4.43;2.17;;;5.50;99.90;;;;;;4972192;28;20548;-69
2021/12/17 03:45:56;;;;;;;5.70;2.90;;;5.50;99.90;;;;;;4971968;28;20536;-70
2021/12/17 03:48:22;;;;;;;16.90;2.57;;;5.50;99.90;;;;;;4971997;28;20524;-70
2021/12/17 03:50:48;;;;;;;5.83;2.20;;;5.50;99.90;;;;;;4972396;28;20457;-70
2021/12/17 03:53:13;;;;;;;9.57;3.33;;;5.50;99.90;;;;;;4972071;28;20170;-69
2021/12/17 03:55:39;;;;;;;5.03;2.90;;;5.50;99.90;;;;;;4971827;28;20165;-69
2021/12/17 03:58:04;;;;;;;4.43;4.00;;;5.50;99.90;;;;;;4971754;28;20277;-68
2021/12/17 04:00:30;;;;;;;6.30;3.50;;;5.50;99.90;;;;;;4972004;28;20177;-69
2021/12/17 04:02:56;;;;;;;7.70;3.10;;;5.50;99.90;;;;;;4972155;28;20189;-69
2021/12/17 04:05:23;;;;;;;4.10;2.70;;;5.50;99.90;;;;;;4971874;28;20341;-70
2021/12/17 04:07:49;;;;;;;3.50;2.63;;;5.50;99.90;;;;;;4974804;28;20503;-70
2021/12/17 04:10:17;;;;;;;7.40;3.13;;;5.60;99.90;;;;;;4975809;28;20919;-70
2021/12/17 04:12:48;;;;;;;5.93;4.40;;;5.60;99.90;;;;;;4975848;28;20172;-70
2021/12/17 04:15:15;;;;;;;3.20;2.77;;;5.50;99.90;;;;;;4975836;28;20464;-70
2021/12/17 04:17:45;;;;;;;4.77;2.73;;;5.60;99.90;;;;;;4975688;28;20440;-70
2021/12/17 04:20:12;;;;;;;3.17;2.40;;;5.50;99.90;;;;;;4974256;28;21001;-70
2021/12/17 04:22:37;;;;;;;3.90;2.20;;;5.50;99.90;;;;;;4975727;28;20954;-70
2021/12/17 04:25:03;;;;;;;5.33;2.63;;;5.50;99.90;;;;;;4975484;28;20603;-71
2021/12/17 04:27:29;;;;;;;3.97;3.33;;;5.60;99.90;;;;;;4975479;28;20174;-70
2021/12/17 04:29:56;;;;;;;4.00;3.60;;;5.60;99.90;;;;;;4975771;28;21066;-70
2021/12/17 04:32:22;;;;;;;2.90;2.33;;;5.60;99.90;;;;;;4976004;28;20166;-70
2021/12/17 04:34:48;;;;;;;3.33;2.90;;;5.60;99.90;;;;;;4976488;28;20401;-70
2021/12/17 04:37:13;;;;;;;3.70;3.23;;;5.60;99.90;;;;;;4975984;28;20460;-71
2021/12/17 04:39:39;;;;;;;9.37;2.73;;;5.60;99.90;;;;;;4975305;28;20664;-70
2021/12/17 04:42:30;;;;;;;9.40;2.80;;;5.60;99.90;;;;;;4975680;28;20256;-69
2021/12/17 04:44:58;;;;;;;4.27;2.50;;;5.70;99.90;;;;;;4975402;28;20607;-70
2021/12/17 04:58:19;;;;;;;5.43;3.50;;;5.60;99.90;;;;;;4975210;28;20424;-71
2021/12/17 05:00:45;;;;;;;5.50;2.43;;;5.60;99.90;;;;;;4974140;28;20443;-70
2021/12/17 05:03:10;;;;;;;8.27;3.03;;;5.60;99.90;;;;;;4975236;28;20181;-71
2021/12/17 05:05:36;;;;;;;3.50;3.00;;;5.60;99.90;;;;;;4975185;28;20174;-71
2021/12/17 05:08:06;;;;;;;3.27;2.40;;;5.60;99.90;;;;;;4974912;28;20200;-70
2021/12/17 05:18:32;;;;;;;5.17;3.97;;;5.60;99.90;;;;;;4973153;28;20456;-69
2021/12/17 05:21:04;;;;;;;6.67;4.00;;;5.60;99.90;;;;;;4974673;28;20757;-69
2021/12/17 05:23:34;;;;;;;3.57;2.83;;;5.50;99.90;;;;;;4974568;28;20467;-69
2021/12/17 05:26:06;;;;;;;4.53;2.97;;;5.60;99.90;;;;;;4974505;28;20659;-70
2021/12/17 05:28:32;;;;;;;5.40;3.30;;;5.50;99.90;;;;;;4996364;23;20867;-69
2021/12/17 05:30:58;;;;;;;6.70;3.50;;;5.50;99.90;;;;;;4974762;28;20460;-69
2021/12/17 05:33:25;;;;;;;6.03;2.93;;;5.40;99.90;;;;;;4974623;28;20440;-68
2021/12/17 05:35:51;;;;;;;4.10;2.80;;;5.40;99.90;;;;;;4974348;28;20409;-69
2021/12/17 05:38:19;;;;;;;4.90;2.90;;;5.50;99.90;;;;;;4974451;28;20400;-69
2021/12/17 05:40:45;;;;;;;6.93;3.70;;;5.40;99.90;;;;;;4974525;28;20178;-70
2021/12/17 05:43:12;;;;;;;3.50;2.30;;;5.40;99.90;;;;;;4974728;28;20417;-70
2021/12/17 05:45:51;;;;;;;6.00;3.20;;;5.40;99.90;;;;;;4974563;28;20413;-69
2021/12/17 05:48:20;;;;;;;3.90;3.60;;;5.30;99.90;;;;;;4974357;28;20412;-68
2021/12/17 05:50:48;;;;;;;5.60;4.77;;;5.40;99.90;;;;;;4974458;28;20489;-68
2021/12/17 05:53:13;;;;;;;4.23;2.77;;;5.40;99.90;;;;;;4974449;28;20397;-69
2021/12/17 05:55:39;;;;;;;6.87;2.93;;;5.30;99.90;;;;;;4976006;28;20448;-69
2021/12/17 05:58:06;;;;;;;4.20;2.70;;;5.30;99.90;;;;;;4975394;28;20174;-69
2021/12/17 06:00:32;;;;;;;6.40;2.90;;;5.20;99.90;;;;;;4974003;28;20261;-67
2021/12/17 06:02:59;;;;;;;11.13;4.30;;;5.20;99.90;;;;;;4974019;28;20409;-70
2021/12/17 06:05:26;;;;;;;9.47;3.13;;;5.20;99.90;;;;;;4973939;28;20471;-69
2021/12/17 06:07:52;;;;;;;5.13;2.50;;;5.20;99.90;;;;;;4973714;28;20413;-69
2021/12/17 06:10:18;;;;;;;5.70;3.50;;;5.20;99.90;;;;;;4973701;28;20465;-69
2021/12/17 06:12:43;;;;;;;4.17;3.70;;;5.10;99.90;;;;;;4973929;28;20170;-69
2021/12/17 06:15:12;;;;;;;4.07;2.87;;;5.10;99.90;;;;;;4973772;28;21165;-69
2021/12/17 06:17:37;;;;;;;5.13;2.70;;;5.10;99.90;;;;;;4973625;28;20245;-69
2021/12/17 06:20:05;;;;;;;6.67;2.60;;;5.10;99.90;;;;;;4973903;28;20516;-69
2021/12/17 06:22:31;;;;;;;5.07;2.87;;;5.20;99.90;;;;;;4973856;28;20233;-69
2021/12/17 06:24:57;;;;;;;6.47;4.17;;;5.10;99.90;;;;;;4973581;28;20462;-69
2021/12/17 06:27:25;;;;;;;4.20;2.93;;;5.10;99.90;;;;;;4973685;28;20891;-69
2021/12/17 06:29:52;;;;;;;5.27;2.07;;;5.10;99.90;;;;;;4973487;28;20285;-69
2021/12/17 06:32:19;;;;;;;6.47;3.03;;;5.10;99.90;;;;;;4972678;28;20900;-69
2021/12/17 06:34:45;;;;;;;5.93;2.90;;;5.10;99.90;;;;;;4973652;28;20409;-69
2021/12/17 06:37:10;;;;;;;6.60;3.90;;;5.00;99.90;;;;;;4973628;28;20409;-69
2021/12/17 06:39:36;;;;;;;14.80;3.50;;;5.10;99.90;;;;;;4973327;28;20571;-70
2021/12/17 06:42:02;;;;;;;4.10;3.20;;;5.10;99.90;;;;;;4973448;28;20166;-69
2021/12/17 06:44:28;;;;;;;11.53;3.43;;;5.10;99.90;;;;;;4973288;28;20170;-70
2021/12/17 06:55:18;;;;;;;3.40;2.47;;;5.20;99.90;;;;;;4973385;28;20177;-70
2021/12/17 06:58:28;;;;;;;4.47;2.57;;;5.20;99.90;;;;;;4973352;28;20413;-69
2021/12/17 07:00:48;;;;;;;3.87;2.50;;;5.20;99.90;;;;;;4972854;28;20421;-70
2021/12/17 07:11:38;;;;;;;7.63;2.93;;;5.20;99.90;;;;;;4970790;28;20217;-69
2021/12/17 07:20:26;;;;;;;8.50;3.10;;;5.20;99.90;;;;;;4972761;28;20984;-68
2021/12/17 07:22:43;;;;;;;3.17;2.70;;;5.30;99.90;;;;;;4970455;28;20417;-68
2021/12/17 07:31:58;;;;;;;7.57;3.80;;;5.20;99.90;;;;;;4953469;28;20965;-68
2021/12/17 07:33:15;;;;;;;3.43;2.30;;;5.30;99.90;;;;;;4957964;28;20515;-68
2021/12/17 07:35:45;;;;;;;2.13;1.63;;;5.30;99.90;;;;;;4972933;28;20401;-68
2021/12/17 07:40:56;;;;;;;2.10;1.90;;;5.30;99.90;;;;;;4958372;28;20425;-69
2021/12/17 07:43:36;;;;;;;3.43;3.13;;;5.30;99.90;;;;;;4955866;28;20417;-69
2021/12/17 07:46:04;;;;;;;4.83;3.73;;;5.30;99.90;;;;;;4955835;28;20186;-68
2021/12/17 07:48:31;;;;;;;6.67;3.00;;;5.30;99.90;;;;;;4954502;28;20444;-69
2021/12/17 07:50:57;;;;;;;3.90;2.40;;;5.30;99.90;;;;;;4953682;28;20492;-68
2021/12/17 07:53:23;;;;;;;3.67;2.13;;;5.40;99.90;;;;;;4956087;28;20404;-68
2021/12/17 07:55:48;;;;;;;8.83;2.83;;;5.40;99.90;;;;;;4972536;28;20547;-69
2021/12/17 07:58:14;;;;;;;11.60;4.80;;;5.40;99.90;;;;;;4974126;28;20240;-70
2021/12/17 08:00:40;;;;;;;4.53;3.53;;;5.40;99.90;;;;;;4978467;28;20205;-70
2021/12/17 08:03:06;;;;;;;3.73;3.40;;;5.40;99.90;;;;;;4979270;28;20265;-70
2021/12/17 08:05:31;;;;;;;15.13;2.93;;;5.40;99.90;;;;;;4979419;28;20508;-70
2021/12/17 08:07:56;;;;;;;3.20;3.00;;;5.30;99.90;;;;;;4979263;28;20185;-70
2021/12/17 08:10:22;;;;;;;4.23;2.40;;;5.40;99.90;;;;;;4979586;28;20205;-70
2021/12/17 08:12:48;;;;;;;4.43;2.90;;;5.40;99.90;;;;;;4979288;28;20169;-70
2021/12/17 08:15:14;;;;;;;5.23;2.70;;;5.40;99.90;;;;;;4980658;28;20522;-70
2021/12/17 08:23:41;;;;;;;13.47;5.53;;;5.50;99.90;;;;;;4973147;28;20408;-70
2021/12/17 08:28:25;;;;;;;5.17;2.90;;;5.50;99.90;;;;;;4971992;28;20448;-70
2021/12/17 08:30:51;;;;;;;2.93;2.37;;;5.60;99.90;;;;;;4971845;28;20452;-71
2021/12/17 08:33:20;;;;;;;4.40;2.70;;;5.50;99.90;;;;;;4972857;28;20876;-70
2021/12/17 08:35:46;;;;;;;5.00;2.40;;;5.50;99.90;;;;;;4971857;28;20169;-69
2021/12/17 08:38:12;;;;;;;4.83;2.20;;;5.60;99.90;;;;;;4971833;28;20401;-71
2021/12/17 08:40:37;;;;;;;2.23;1.93;;;5.60;99.90;;;;;;4971658;28;20413;-69
2021/12/17 08:43:03;;;;;;;2.23;1.80;;;5.70;99.90;;;;;;4972299;28;20174;-69
2021/12/17 08:45:29;;;;;;;5.00;2.33;;;5.60;99.90;;;;;;4971936;28;20170;-69
2021/12/17 08:47:54;;;;;;;9.63;2.43;;;5.60;99.90;;;;;;4971883;28;20273;-69
2021/12/17 08:50:20;;;;;;;5.13;2.10;;;5.60;99.90;;;;;;4971847;28;20567;-69
2021/12/17 08:52:47;;;;;;;6.13;2.10;;;5.70;99.90;;;;;;4972984;28;20262;-69
2021/12/17 08:55:12;;;;;;;2.67;2.47;;;5.70;99.90;;;;;;4975546;28;20699;-69
2021/12/17 08:57:39;;;;;;;1.80;1.30;;;5.70;99.90;;;;;;4975064;28;20417;-70
2021/12/17 09:00:08;;;;;;;2.50;1.63;;;5.80;99.90;;;;;;4975136;28;20656;-69
2021/12/17 09:02:35;;;;;;;3.23;2.03;;;5.80;99.90;;;;;;4975134;28;20401;-69
2021/12/17 09:05:03;;;;;;;2.70;1.80;;;5.80;99.90;;;;;;4975015;28;20421;-69
2021/12/17 09:07:29;;;;;;;5.87;2.53;;;5.80;99.90;;;;;;4974931;28;20425;-69
2021/12/17 09:09:54;;;;;;;2.47;2.27;;;5.90;99.90;;;;;;4975061;28;20461;-69
2021/12/17 09:12:20;;;;;;;4.97;3.57;;;5.90;99.90;;;;;;4975233;28;20173;-69
2021/12/17 09:14:45;;;;;;;1.80;1.70;;;5.90;99.90;;;;;;4989234;28;20173;-69
2021/12/17 09:17:11;;;;;;;2.93;1.80;;;5.90;99.90;;;;;;4994327;28;20297;-69
2021/12/17 09:19:36;;;;;;;1.90;1.80;;;5.80;99.90;;;;;;4994346;28;20189;-69
2021/12/17 09:22:02;;;;;;;3.03;2.33;;;5.90;99.90;;;;;;4994439;28;20201;-69
2021/12/17 09:24:28;;;;;;;1.57;1.47;;;5.90;99.90;;;;;;4994478;28;20173;-68
2021/12/17 09:26:54;;;;;;;7.00;2.50;;;5.90;99.90;;;;;;4994153;28;20405;-68
2021/12/17 09:29:20;;;;;;;7.20;2.13;;;5.90;99.90;;;;;;4994042;28;20215;-70
2021/12/17 09:31:45;;;;;;;3.70;2.00;;;6.00;99.90;;;;;;4994483;28;20460;-70
2021/12/17 09:34:11;;;;;;;7.97;2.20;;;5.90;99.90;;;;;;4996233;28;20232;-70
2021/12/17 09:36:36;;;;;;;3.70;2.40;;;6.00;99.90;;;;;;4997113;28;20169;-70
2021/12/17 09:39:02;;;;;;;1.70;1.33;;;6.00;99.90;;;;;;4994056;28;20200;-70
2021/12/17 09:41:27;;;;;;;3.40;3.20;;;6.10;99.90;;;;;;4993919;28;20169;-70
2021/12/17 09:43:54;;;;;;;1.80;1.67;;;6.10;99.90;;;;;;4994271;28;20173;-71
2021/12/17 09:46:20;;;;;;;5.80;3.37;;;6.10;99.90;;;;;;4993442;28;20702;-69
2021/12/17 09:48:47;;;;;;;4.30;2.20;;;6.10;99.90;;;;;;4993384;28;20508;-70
2021/12/17 09:51:15;;;;;;;3.27;2.30;;;6.10;99.90;;;;;;4985372;28;20193;-71
2021/12/17 09:53:41;;;;;;;4.10;2.63;;;6.10;99.90;;;;;;4965892;28;20409;-70
2021/12/17 09:56:06;;;;;;;12.30;7.63;;;6.10;99.90;;;;;;4973509;28;20455;-69
2021/12/17 09:58:33;;;;;;;7.83;3.10;;;6.20;99.90;;;;;;4973881;28;20425;-70
2021/12/17 10:00:59;;;;;;;4.50;2.70;;;6.30;99.90;;;;;;4974089;28;20177;-69
2021/12/17 10:03:26;;;;;;;3.73;2.27;;;6.50;99.90;;;;;;4973604;28;20544;-69
2021/12/17 10:05:51;;;;;;;1.77;1.30;;;6.30;99.90;;;;;;4972724;28;20413;-68
2021/12/17 10:08:19;;;;;;;3.00;1.83;;;6.20;99.90;;;;;;4973272;28;20413;-69
2021/12/17 10:10:46;;;;;;;1.77;1.37;;;6.20;99.90;;;;;;4973272;28;20201;-69
2021/12/17 10:13:16;;;;;;;4.30;2.00;;;6.30;99.90;;;;;;4973249;28;20410;-69
2021/12/17 10:15:46;;;;;;;2.10;1.90;;;6.40;99.90;;;;;;4973308;28;20775;-69
2021/12/17 10:18:12;;;;;;;2.23;1.83;;;6.20;99.90;;;;;;4973100;28;20415;-69
2021/12/17 10:20:58;;;;;;;3.93;1.37;;;6.30;99.90;;;;;;4973112;28;20409;-69
2021/12/17 10:23:26;;;;;;;1.90;1.43;;;6.20;99.90;;;;;;4972886;28;20461;-69
2021/12/17 10:25:51;;;;;;;3.17;2.27;;;6.30;99.90;;;;;;4973089;28;20429;-69
2021/12/17 10:28:17;;;;;;;2.37;1.97;;;6.30;99.90;;;;;;4972612;28;20924;-70
2021/12/17 10:30:45;;;;;;;7.23;2.00;;;6.40;99.90;;;;;;4972945;28;20197;-69
2021/12/17 10:33:19;;;;;;;3.60;1.60;;;6.40;99.90;;;;;;4973188;28;20724;-69
2021/12/17 10:35:48;;;;;;;4.53;2.10;;;6.40;99.90;;;;;;4973252;28;20498;-69
2021/12/17 10:38:17;;;;;;;3.17;2.50;;;6.30;99.90;;;;;;4972831;28;20500;-69
2021/12/17 10:40:49;;;;;;;3.40;1.43;;;6.30;99.90;;;;;;4972834;28;20421;-70
2021/12/17 10:43:26;;;;;;;6.13;1.97;;;6.30;99.90;;;;;;4972697;28;20414;-69
2021/12/17 10:46:07;;;;;;;2.30;1.60;;;6.30;99.90;;;;;;4972766;28;20409;-69
2021/12/17 10:48:50;;;;;;;3.13;1.23;;;6.30;99.90;;;;;;4972767;28;20532;-69
2021/12/17 10:53:59;;;;;;;2.13;1.47;;;6.40;99.90;;;;;;4972914;28;20567;-70
2021/12/17 10:56:35;;;;;;;2.57;1.33;;;6.40;99.90;;;;;;4972892;28;20409;-70
2021/12/17 10:59:05;;;;;;;4.40;2.37;;;6.40;99.90;;;;;;4972979;28;20440;-70
2021/12/17 11:01:40;;;;;;;3.30;2.10;;;6.40;99.90;;;;;;4972492;28;20831;-70
2021/12/17 11:04:06;;;;;;;4.70;1.93;;;6.50;99.90;;;;;;4972530;28;20867;-70
2021/12/17 11:06:51;;;;;;;4.97;2.30;;;6.40;99.90;;;;;;4972494;28;20413;-70
2021/12/17 11:09:50;;;;;;;3.20;1.60;;;6.40;99.90;;;;;;4972325;28;20450;-70
2021/12/17 11:12:39;;;;;;;3.80;1.70;;;6.40;99.90;;;;;;4972558;28;20935;-70
2021/12/17 11:15:22;;;;;;;1.77;1.47;;;6.50;99.90;;;;;;4972172;28;20416;-70
2021/12/17 11:17:55;;;;;;;2.30;1.67;;;6.50;99.90;;;;;;4972350;28;20413;-70
2021/12/17 11:20:25;;;;;;;5.00;1.70;;;6.50;99.90;;;;;;4972359;28;20443;-70
2021/12/17 11:22:52;;;;;;;1.47;1.27;;;6.50;99.90;;;;;;4973125;28;20853;-69
2021/12/17 11:25:18;;;;;;;3.30;1.30;;;6.50;99.90;;;;;;4975157;28;20409;-70
2021/12/17 11:27:44;;;;;;;2.10;1.70;;;6.50;99.90;;;;;;4973235;28;20421;-70
2021/12/17 11:30:14;;;;;;;1.90;1.57;;;6.50;99.90;;;;;;4993636;23;20485;-72
2021/12/17 11:32:43;;;;;;;1.60;1.47;;;6.40;99.90;;;;;;4971452;28;20193;-72
2021/12/17 11:35:08;;;;;;;1.77;1.23;;;6.40;99.90;;;;;;4963026;28;20417;-71
2021/12/17 11:37:34;;;;;;;2.00;1.27;;;6.40;99.90;;;;;;4972529;28;20488;-70
2021/12/17 11:40:05;;;;;;;2.97;1.83;;;6.40;99.90;;;;;;4967888;28;20307;-73
2021/12/17 11:42:53;;;;;;;1.83;1.63;;;6.50;99.90;;;;;;4953265;28;20642;-70
2021/12/17 11:45:23;;;;;;;2.93;1.23;;;6.40;99.90;;;;;;4953395;28;20403;-71
2021/12/17 11:47:49;;;;;;;2.80;1.40;;;6.40;99.90;;;;;;4953012;28;20449;-72
2021/12/17 11:50:17;;;;;;;6.97;2.53;;;6.50;99.90;;;;;;4956761;28;20460;-71
2021/12/17 11:52:50;;;;;;;1.83;1.20;;;6.50;99.90;;;;;;4973731;28;20437;-72
2021/12/17 11:55:30;;;;;;;1.97;1.30;;;6.50;99.90;;;;;;4972233;28;20872;-72
2021/12/17 11:57:58;;;;;;;1.20;1.10;;;6.60;99.90;;;;;;4972550;28;20445;-71
2021/12/17 12:00:44;;;;;;;2.43;1.40;;;6.60;99.90;;;;;;4972448;28;20453;-71
2021/12/17 12:03:19;;;;;;;3.73;1.70;;;6.70;99.90;;;;;;4968697;28;20429;-72
2021/12/17 12:05:47;;;;;;;3.30;1.30;;;6.60;99.90;;;;;;4973777;28;20408;-71
2021/12/17 12:08:28;;;;;;;3.50;1.77;;;6.60;99.90;;;;;;4973454;28;20423;-71
2021/12/17 12:11:04;;;;;;;3.20;1.40;;;6.70;99.90;;;;;;4972702;28;20448;-71
2021/12/17 12:13:41;;;;;;;2.00;1.50;;;6.60;99.90;;;;;;4972756;28;20420;-73
2021/12/17 12:16:10;;;;;;;3.00;1.90;;;6.70;99.90;;;;;;4973080;28;20409;-73
2021/12/17 12:18:47;;;;;;;1.27;1.10;;;6.70;99.90;;;;;;4972932;28;20429;-72
2021/12/17 12:21:17;;;;;;;4.23;1.80;;;6.70;99.90;;;;;;4973353;28;20409;-72
2021/12/17 12:23:49;;;;;;;4.33;1.63;;;6.70;99.90;;;;;;4973374;28;20417;-73
2021/12/17 12:26:21;;;;;;;2.00;1.83;;;6.60;99.90;;;;;;4974609;28;20416;-72
2021/12/17 12:28:50;;;;;;;1.77;1.40;;;6.70;99.90;;;;;;4977332;28;20472;-72
2021/12/17 12:31:25;;;;;;;3.90;2.63;;;6.60;99.90;;;;;;4978641;28;20464;-71
2021/12/17 12:34:00;;;;;;;2.10;1.60;;;6.60;99.90;;;;;;4980590;28;20424;-74
2021/12/17 12:36:50;;;;;;;1.83;1.60;;;6.60;99.90;;;;;;4986220;28;20493;-72
2021/12/17 12:39:26;;;;;;;1.83;1.53;;;6.60;99.90;;;;;;4984832;28;20529;-73
2021/12/17 12:42:01;;;;;;;1.73;1.60;;;6.60;99.90;;;;;;4987936;28;20412;-72
2021/12/17 12:44:42;;;;;;;1.63;1.53;;;6.60;99.90;;;;;;4982799;28;20440;-72
2021/12/17 12:47:29;;;;;;;2.50;2.17;;;6.60;99.90;;;;;;4977452;28;20413;-72
2021/12/17 12:50:07;;;;;;;1.43;1.30;;;6.60;99.90;;;;;;4975414;28;21017;-71
2021/12/17 12:52:55;;;;;;;3.17;1.33;;;6.60;99.90;;;;;;4975935;28;20404;-73
2021/12/17 12:55:25;;;;;;;1.67;1.40;;;6.70;99.90;;;;;;4974370;28;20460;-71
2021/12/17 12:58:01;;;;;;;5.53;2.87;;;6.70;99.90;;;;;;4974907;28;20432;-73
2021/12/17 13:00:45;;;;;;;4.40;1.50;;;6.70;99.90;;;;;;4975642;28;20447;-71
2021/12/17 13:03:23;;;;;;;3.87;1.70;;;6.70;99.90;;;;;;4976273;28;20748;-73
2021/12/17 13:05:49;;;;;;;6.40;1.60;;;6.70;99.90;;;;;;4976353;28;20416;-73
2021/12/17 13:08:17;;;;;;;1.40;1.13;;;6.70;99.90;;;;;;4975559;28;20448;-72
2021/12/17 13:10:46;;;;;;;4.87;1.97;;;6.60;99.90;;;;;;4975633;28;20460;-72
2021/12/17 13:24:05;;;;;;;3.43;1.63;;;6.80;99.90;;;;;;4984314;28;20422;-72
2021/12/17 13:26:31;;;;;;;4.30;2.50;;;6.80;99.90;;;;;;4974434;28;20469;-71
2021/12/17 13:29:04;;;;;;;1.43;1.33;;;6.90;99.90;;;;;;4974180;28;20539;-70
2021/12/17 13:31:34;;;;;;;3.63;2.20;;;6.80;99.90;;;;;;4974553;28;20489;-70
2021/12/17 13:33:59;;;;;;;2.83;1.93;;;6.80;99.90;;;;;;4974417;28;20568;-71
2021/12/17 13:36:26;;;;;;;10.20;2.50;;;6.80;99.90;;;;;;4974718;28;20438;-70
2021/12/17 13:39:00;;;;;;;1.67;1.30;;;6.80;99.90;;;;;;4973525;28;20425;-71
2021/12/17 13:41:40;;;;;;;2.07;1.87;;;6.80;99.90;;;;;;4974556;28;20174;-70
2021/12/17 13:44:25;;;;;;;2.87;1.33;;;6.70;99.90;;;;;;4974793;28;20416;-71
2021/12/17 13:46:52;;;;;;;6.10;1.43;;;6.70;99.90;;;;;;4974405;28;20413;-71
2021/12/17 13:49:19;;;;;;;2.10;1.80;;;6.70;99.90;;;;;;4974563;28;20429;-74
2021/12/17 13:51:45;;;;;;;1.50;1.23;;;6.70;99.90;;;;;;4974125;28;20453;-70
2021/12/17 13:54:11;;;;;;;4.50;1.50;;;6.80;99.90;;;;;;4974445;28;20777;-70
2021/12/17 13:56:37;;;;;;;1.77;1.63;;;6.70;99.90;;;;;;4974486;28;20178;-69
2021/12/17 13:59:03;;;;;;;1.80;1.70;;;6.80;99.90;;;;;;4974517;28;20668;-70
2021/12/17 14:01:28;;;;;;;3.03;2.53;;;6.90;99.90;;;;;;4974225;28;20189;-71
2021/12/17 14:03:54;;;;;;;1.50;1.30;;;6.90;99.90;;;;;;4974326;28;20425;-69
2021/12/17 14:06:27;;;;;;;2.20;1.47;;;6.80;99.90;;;;;;4973593;28;20173;-70
2021/12/17 14:08:53;;;;;;;1.03;0.90;;;6.80;99.90;;;;;;4973756;28;20205;-70
2021/12/17 14:11:24;;;;;;;3.07;1.90;;;6.70;99.90;;;;;;4973793;28;20464;-69
2021/12/17 14:13:50;;;;;;;1.40;1.30;;;6.70;99.90;;;;;;4973694;28;20169;-70
2021/12/17 14:16:30;;;;;;;2.73;2.30;;;6.70;99.90;;;;;;4973932;28;20986;-69
2021/12/17 14:18:57;;;;;;;6.67;2.60;;;6.70;99.90;;;;;;4973419;28;20474;-69
2021/12/17 14:21:27;;;;;;;1.93;1.43;;;6.70;99.90;;;;;;4973547;28;20511;-69
2021/12/17 14:23:53;;;;;;;1.53;1.40;;;6.80;99.90;;;;;;4973796;28;20451;-70
2021/12/17 14:26:27;;;;;;;2.87;1.30;;;6.70;99.90;;;;;;4973614;28;20417;-70
2021/12/17 14:28:53;;;;;;;2.10;1.93;;;6.60;99.90;;;;;;4966965;28;20803;-70
2021/12/17 14:31:23;;;;;;;4.30;2.43;;;6.70;99.90;;;;;;4961514;28;20544;-70
2021/12/17 14:33:57;;;;;;;4.80;1.33;;;6.60;99.90;;;;;;4977463;28;20180;-70
2021/12/17 14:36:38;;;;;;;5.10;1.27;;;6.60;99.90;;;;;;4980537;28;20495;-70
2021/12/17 14:39:16;;;;;;;2.37;1.57;;;6.60;99.90;;;;;;4973198;28;20440;-70
2021/12/17 14:42:02;;;;;;;1.73;1.63;;;6.70;99.90;;;;;;4973282;28;20736;-70
2021/12/17 14:47:28;;;;;;;3.27;1.23;;;6.60;99.90;;;;;;4972900;28;20420;-71
2021/12/17 15:00:08;;;;;;;6.63;1.67;;;6.50;99.90;;;;;;4973270;28;20750;-70
2021/12/17 15:01:14;;;;;;;2.90;1.80;;;6.50;99.90;;;;;;4968707;28;20424;-69
2021/12/17 15:03:42;;;;;;;2.80;1.53;;;6.50;99.90;;;;;;4973219;28;20443;-70
2021/12/17 15:06:15;;;;;;;4.60;1.93;;;6.50;99.90;;;;;;4972864;28;20409;-70
2021/12/17 15:08:41;;;;;;;1.87;1.57;;;6.40;99.90;;;;;;4972667;28;20483;-70
2021/12/17 15:11:15;;;;;;;1.50;1.40;;;6.40;99.90;;;;;;4972956;28;20971;-71
2021/12/17 15:13:40;;;;;;;1.70;1.30;;;6.40;99.90;;;;;;4972743;28;20413;-70
2021/12/17 15:16:06;;;;;;;2.33;1.93;;;6.40;99.90;;;;;;4972870;28;20415;-71
2021/12/17 15:18:32;;;;;;;1.70;1.20;;;6.40;99.90;;;;;;4972801;28;20618;-72
2021/12/17 15:20:58;;;;;;;1.30;1.00;;;6.40;99.90;;;;;;4973151;28;20177;-71
2021/12/17 15:23:24;;;;;;;8.43;2.30;;;6.40;99.90;;;;;;4972891;28;20184;-71
2021/12/17 15:25:51;;;;;;;2.63;1.20;;;6.30;99.90;;;;;;4972660;28;20496;-71
2021/12/17 15:28:22;;;;;;;0.90;0.90;;;6.30;99.90;;;;;;4972593;28;20436;-71
2021/12/17 15:30:50;;;;;;;2.23;1.40;;;6.40;99.90;;;;;;4972779;28;20558;-71
2021/12/17 15:33:16;;;;;;;5.37;1.47;;;6.40;99.90;;;;;;4972716;28;20412;-70
2021/12/17 15:35:43;;;;;;;1.37;1.00;;;6.40;99.90;;;;;;4971412;28;20852;-69
2021/12/17 15:38:09;;;;;;;3.53;1.40;;;6.40;99.90;;;;;;4973294;28;20284;-70
2021/12/17 15:40:40;;;;;;;0.93;0.83;;;6.30;99.90;;;;;;4972590;28;21036;-70
2021/12/17 15:43:07;;;;;;;1.37;1.20;;;6.30;99.90;;;;;;4972507;28;20468;-70
2021/12/17 15:45:35;;;;;;;3.10;1.70;;;6.30;99.90;;;;;;4971459;28;20413;-74
2021/12/17 15:48:00;;;;;;;1.10;1.00;;;6.30;99.90;;;;;;4972560;28;20425;-71
2021/12/17 15:50:26;;;;;;;1.20;1.10;;;6.30;99.90;;;;;;4972493;28;20503;-70
2021/12/17 15:52:52;;;;;;;2.30;1.17;;;6.30;99.90;;;;;;4973133;28;20185;-71
2021/12/17 15:55:21;;;;;;;2.63;1.10;;;6.30;99.90;;;;;;4972893;28;20165;-70
2021/12/17 15:57:48;;;;;;;1.00;1.00;;;6.30;99.90;;;;;;4972275;28;20927;-72
2021/12/17 16:00:16;;;;;;;2.07;1.80;;;6.30;99.90;;;;;;4972476;28;20444;-71